Time;durP1;ratioP1;P1;durP2;ratioP2;P2;SDS_P1;SDS_P2;PMS_P1;PMS_P2;Temp;Humidity;BMP_temperature;BMP_pressure;BME280_temperature;BME280_humidity;BME280_pressure;Samples;Min_cycle;Max_cycle;Signal;HPM_P1;HPM_P2
2021/04/07 00:00:17;;;;;;;21.60;12.50;;;1.60;76.50;;;;;;4979393;28;20216;-81
2021/04/07 00:03:05;;;;;;;20.73;13.17;;;1.80;76.60;;;;;;4964301;28;20235;-81
2021/04/07 00:05:36;;;;;;;24.03;12.80;;;1.50;76.60;;;;;;4969443;28;20318;-80
2021/04/07 00:08:04;;;;;;;19.33;12.23;;;1.50;76.70;;;;;;4959713;28;20269;-81
2021/04/07 00:10:35;;;;;;;24.33;12.43;;;1.40;77.10;;;;;;4967008;28;20211;-83
2021/04/07 00:13:03;;;;;;;21.83;11.93;;;1.40;77.40;;;;;;4962298;28;20608;-84
2021/04/07 00:15:31;;;;;;;21.07;12.23;;;1.30;77.30;;;;;;4969676;28;20216;-81
2021/04/07 00:17:59;;;;;;;25.40;12.53;;;1.30;77.50;;;;;;4979730;28;20208;-81
2021/04/07 00:20:27;;;;;;;22.47;12.37;;;1.30;77.70;;;;;;4968490;28;20551;-82
2021/04/07 00:22:57;;;;;;;18.77;12.90;;;1.40;77.50;;;;;;4979275;28;20204;-83
2021/04/07 00:25:25;;;;;;;22.00;12.67;;;1.40;77.50;;;;;;4963122;28;20233;-83
2021/04/07 00:27:55;;;;;;;18.47;12.13;;;1.30;77.60;;;;;;4968241;28;20227;-81
2021/04/07 00:30:25;;;;;;;19.57;12.67;;;1.30;77.70;;;;;;4972226;28;20591;-81
2021/04/07 00:32:53;;;;;;;22.93;13.33;;;1.20;77.70;;;;;;4964515;28;20200;-81
2021/04/07 00:35:20;;;;;;;22.83;11.90;;;1.00;78.00;;;;;;4962754;28;20242;-82
2021/04/07 00:37:49;;;;;;;22.77;12.07;;;1.00;78.30;;;;;;4972087;28;20276;-79
2021/04/07 00:40:18;;;;;;;22.67;12.17;;;1.10;78.50;;;;;;4973066;28;20937;-81
2021/04/07 00:42:48;;;;;;;22.10;12.53;;;1.10;78.50;;;;;;4971588;28;20839;-83
2021/04/07 00:45:17;;;;;;;23.80;13.47;;;1.00;78.60;;;;;;4970201;28;20688;-80
2021/04/07 00:47:48;;;;;;;21.53;13.13;;;1.00;79.00;;;;;;4973305;28;20223;-80
2021/04/07 00:50:17;;;;;;;21.70;13.60;;;0.90;79.10;;;;;;4964131;28;20216;-80
2021/04/07 00:52:45;;;;;;;23.60;13.20;;;0.90;79.40;;;;;;4981589;28;20215;-80
2021/04/07 00:55:14;;;;;;;27.10;14.40;;;0.90;79.60;;;;;;4975628;28;20626;-83
2021/04/07 00:57:44;;;;;;;26.27;13.90;;;0.80;79.80;;;;;;4981674;28;20243;-79
2021/04/07 01:00:13;;;;;;;21.07;12.77;;;0.70;80.10;;;;;;4984327;28;20206;-81
2021/04/07 01:02:41;;;;;;;25.33;14.00;;;0.70;80.20;;;;;;4972454;28;20199;-81
2021/04/07 01:05:11;;;;;;;24.70;13.83;;;0.80;80.30;;;;;;4975470;28;20232;-81
2021/04/07 01:07:39;;;;;;;24.13;13.53;;;0.60;80.40;;;;;;4973242;28;20198;-82
2021/04/07 01:10:09;;;;;;;26.37;14.07;;;0.60;80.70;;;;;;4964852;28;20368;-84
2021/04/07 01:12:38;;;;;;;23.33;13.13;;;0.60;80.90;;;;;;4968094;28;20295;-83
2021/04/07 01:15:08;;;;;;;26.63;14.90;;;0.60;81.10;;;;;;4960121;28;20418;-82
2021/04/07 01:17:36;;;;;;;23.90;14.30;;;0.60;81.10;;;;;;4981028;28;20241;-81
2021/04/07 01:20:06;;;;;;;22.87;13.60;;;0.60;81.00;;;;;;4975957;28;20209;-82
2021/04/07 01:22:35;;;;;;;23.33;13.17;;;0.60;81.30;;;;;;4987953;28;20195;-82
2021/04/07 01:25:08;;;;;;;24.67;14.27;;;0.60;81.30;;;;;;4985404;28;20230;-81
2021/04/07 01:27:37;;;;;;;24.53;14.03;;;0.60;81.40;;;;;;4986206;28;20324;-82
2021/04/07 01:30:07;;;;;;;26.57;14.37;;;0.50;81.50;;;;;;4972516;28;20209;-81
2021/04/07 01:32:36;;;;;;;24.77;13.83;;;0.40;81.60;;;;;;4962892;28;20204;-81
2021/04/07 01:35:05;;;;;;;21.03;13.63;;;0.30;81.80;;;;;;4968953;28;20260;-84
2021/04/07 01:37:34;;;;;;;22.43;13.67;;;0.20;82.60;;;;;;4965856;28;20198;-83
2021/04/07 01:40:03;;;;;;;27.57;14.30;;;0.20;82.80;;;;;;4966536;28;20233;-81
2021/04/07 01:42:32;;;;;;;25.90;14.03;;;0.20;82.90;;;;;;4962990;28;20207;-82
2021/04/07 01:45:02;;;;;;;24.43;13.57;;;0.20;83.00;;;;;;4967546;28;20236;-82
2021/04/07 01:47:30;;;;;;;22.40;13.87;;;0.10;83.30;;;;;;4972205;28;20205;-84
2021/04/07 01:50:00;;;;;;;23.50;14.23;;;0.10;83.50;;;;;;4959997;28;20202;-82
2021/04/07 01:52:28;;;;;;;22.43;13.87;;;0.10;83.60;;;;;;4969092;28;20209;-82
2021/04/07 01:54:56;;;;;;;30.83;14.53;;;0.20;83.70;;;;;;4974224;28;20773;-81
2021/04/07 01:57:24;;;;;;;29.63;13.90;;;0.20;83.50;;;;;;4975077;28;20284;-80
2021/04/07 01:59:53;;;;;;;20.47;13.93;;;0.20;83.80;;;;;;4979670;28;20214;-84
2021/04/07 02:02:20;;;;;;;21.17;13.90;;;0.30;83.80;;;;;;4972819;28;20228;-81
2021/04/07 02:04:48;;;;;;;23.77;13.40;;;0.30;83.90;;;;;;4980227;28;20315;-80
2021/04/07 02:07:17;;;;;;;25.57;14.47;;;0.30;83.90;;;;;;4971252;28;20212;-81
2021/04/07 02:09:45;;;;;;;25.17;13.53;;;0.20;83.80;;;;;;4963417;28;20203;-80
2021/04/07 02:12:13;;;;;;;26.10;14.87;;;0.30;84.20;;;;;;4975948;28;20369;-82
2021/04/07 02:14:41;;;;;;;26.43;14.40;;;0.20;84.10;;;;;;4967543;28;20231;-80
2021/04/07 02:17:09;;;;;;;25.93;14.20;;;0.30;84.00;;;;;;4967328;28;20209;-83
2021/04/07 02:19:37;;;;;;;24.23;14.90;;;0.30;84.30;;;;;;4965766;28;20212;-81
2021/04/07 02:22:07;;;;;;;23.57;13.77;;;0.40;84.20;;;;;;4971408;28;20220;-81
2021/04/07 02:24:35;;;;;;;22.17;12.97;;;0.30;84.40;;;;;;4973727;28;20560;-82
2021/04/07 02:27:09;;;;;;;25.27;14.03;;;0.30;84.60;;;;;;4968824;28;20216;-82
2021/04/07 02:29:37;;;;;;;23.57;14.40;;;0.20;84.50;;;;;;4970390;28;20307;-80
2021/04/07 02:32:06;;;;;;;24.13;13.83;;;0.20;84.70;;;;;;4969538;28;20440;-85
2021/04/07 02:34:34;;;;;;;24.57;14.93;;;0.20;84.90;;;;;;4969548;28;20208;-81
2021/04/07 02:37:02;;;;;;;23.20;14.10;;;0.20;84.90;;;;;;4974916;28;20244;-81
2021/04/07 02:39:30;;;;;;;24.87;14.73;;;0.20;85.00;;;;;;4967079;28;20182;-83
2021/04/07 02:41:58;;;;;;;26.17;14.53;;;0.10;84.80;;;;;;4970052;28;20205;-80
2021/04/07 02:44:25;;;;;;;23.33;12.93;;;0.10;85.20;;;;;;4973214;28;20230;-80
2021/04/07 02:46:53;;;;;;;22.73;14.43;;;0.10;85.30;;;;;;4982430;28;20190;-82
2021/04/07 02:49:21;;;;;;;27.17;14.33;;;-0.10;85.70;;;;;;4987778;28;20205;-84
2021/04/07 02:51:51;;;;;;;23.13;14.27;;;-0.20;86.20;;;;;;4977625;28;20205;-82
2021/04/07 02:54:19;;;;;;;25.17;14.43;;;-0.20;86.40;;;;;;4981961;28;20670;-83
2021/04/07 02:56:47;;;;;;;26.10;12.93;;;-0.20;86.80;;;;;;4971294;28;20201;-82
2021/04/07 02:59:15;;;;;;;26.67;13.53;;;0.00;86.50;;;;;;4976966;28;20209;-80
2021/04/07 03:01:43;;;;;;;21.97;14.27;;;-0.10;86.50;;;;;;4973501;28;20208;-80
2021/04/07 03:04:10;;;;;;;26.77;14.57;;;-0.10;86.90;;;;;;4975498;28;20311;-82
2021/04/07 03:06:38;;;;;;;24.17;14.23;;;-0.10;86.90;;;;;;4985857;28;20189;-82
2021/04/07 03:09:07;;;;;;;27.90;14.23;;;-0.20;87.20;;;;;;4970069;28;20230;-81
2021/04/07 03:11:34;;;;;;;21.80;13.27;;;-0.10;87.20;;;;;;4971612;28;20259;-81
2021/04/07 03:14:02;;;;;;;27.27;13.53;;;-0.10;87.40;;;;;;4990545;28;20237;-81
2021/04/07 03:16:30;;;;;;;21.13;13.77;;;-0.10;87.50;;;;;;4967649;28;20202;-82
2021/04/07 03:18:57;;;;;;;23.70;14.17;;;-0.10;87.50;;;;;;4974896;28;20204;-80
2021/04/07 03:21:25;;;;;;;24.80;15.20;;;-0.20;87.60;;;;;;4976795;28;20212;-81
2021/04/07 03:23:53;;;;;;;22.90;12.80;;;-0.20;88.00;;;;;;4980819;28;20846;-82
2021/04/07 03:26:22;;;;;;;21.07;12.37;;;-0.20;88.30;;;;;;4972681;28;20244;-82
2021/04/07 03:28:49;;;;;;;23.97;13.30;;;-0.20;88.30;;;;;;4959709;28;20511;-81
2021/04/07 03:31:17;;;;;;;26.30;14.10;;;-0.20;88.50;;;;;;4970615;28;20226;-83
2021/04/07 03:33:45;;;;;;;22.77;14.07;;;0.00;88.90;;;;;;4959987;28;20564;-81
2021/04/07 03:36:12;;;;;;;27.27;14.20;;;-0.10;88.60;;;;;;4965190;28;20204;-80
2021/04/07 03:38:40;;;;;;;26.03;13.83;;;-0.20;88.30;;;;;;4966527;28;20237;-83
2021/04/07 03:41:08;;;;;;;24.17;13.03;;;-0.20;89.10;;;;;;4962985;28;20712;-81
2021/04/07 03:43:36;;;;;;;20.40;12.73;;;-0.20;89.50;;;;;;4974749;28;20239;-79
2021/04/07 03:46:04;;;;;;;22.43;13.97;;;-0.20;89.70;;;;;;4961864;28;20209;-82
2021/04/07 03:48:32;;;;;;;21.43;13.37;;;-0.20;89.60;;;;;;4966274;28;20239;-80
2021/04/07 03:51:01;;;;;;;23.43;13.83;;;-0.20;89.70;;;;;;4966930;28;20201;-83
2021/04/07 03:53:29;;;;;;;21.10;13.73;;;-0.30;89.90;;;;;;4961142;28;20200;-83
2021/04/07 03:55:57;;;;;;;25.17;14.50;;;-0.30;90.20;;;;;;4963294;28;20208;-82
2021/04/07 03:58:25;;;;;;;25.53;14.63;;;-0.30;90.20;;;;;;4961632;28;20201;-84
2021/04/07 04:00:55;;;;;;;21.70;14.53;;;-0.20;90.40;;;;;;4964668;28;20245;-82
2021/04/07 04:03:22;;;;;;;23.43;14.50;;;-0.20;90.30;;;;;;4966846;28;20217;-82
2021/04/07 04:05:50;;;;;;;22.83;13.87;;;-0.20;90.40;;;;;;4959615;28;20855;-82
2021/04/07 04:08:18;;;;;;;23.87;13.50;;;-0.20;90.30;;;;;;4969438;28;20296;-82
2021/04/07 04:10:46;;;;;;;24.90;13.73;;;-0.20;90.40;;;;;;4962351;28;20196;-80
2021/04/07 04:13:13;;;;;;;23.00;13.17;;;-0.20;90.20;;;;;;4965310;28;20755;-83
2021/04/07 04:15:41;;;;;;;23.20;14.07;;;-0.30;90.30;;;;;;4969416;28;20214;-81
2021/04/07 04:18:10;;;;;;;25.27;13.73;;;-0.20;90.50;;;;;;4982764;28;20217;-82
2021/04/07 04:20:38;;;;;;;24.37;14.17;;;-0.20;90.40;;;;;;4981614;28;20188;-84
2021/04/07 04:23:06;;;;;;;19.70;12.80;;;-0.10;90.40;;;;;;4965112;28;20193;-80
2021/04/07 04:25:34;;;;;;;23.87;13.80;;;-0.10;90.60;;;;;;4962611;28;20229;-82
2021/04/07 04:28:01;;;;;;;22.40;13.97;;;-0.20;90.30;;;;;;4961783;28;20206;-80
2021/04/07 04:30:29;;;;;;;22.80;13.43;;;0.00;90.20;;;;;;4965593;28;20204;-82
2021/04/07 04:32:58;;;;;;;22.00;13.40;;;0.10;90.10;;;;;;4965307;28;20205;-82
2021/04/07 04:35:27;;;;;;;19.70;12.93;;;0.10;90.20;;;;;;4970311;28;20197;-81
2021/04/07 04:37:54;;;;;;;27.27;15.07;;;0.10;90.30;;;;;;4980279;28;20229;-82
2021/04/07 04:40:22;;;;;;;21.57;13.50;;;0.10;90.10;;;;;;4967000;28;20689;-82
2021/04/07 04:42:50;;;;;;;24.93;14.47;;;0.20;90.20;;;;;;4970410;28;20622;-82
2021/04/07 04:45:17;;;;;;;24.50;13.93;;;0.30;90.10;;;;;;4969166;28;20583;-81
2021/04/07 04:47:45;;;;;;;25.70;13.80;;;0.30;90.00;;;;;;4962966;28;20213;-81
2021/04/07 04:50:13;;;;;;;23.67;14.13;;;0.30;90.00;;;;;;4973825;28;20228;-83
2021/04/07 04:52:41;;;;;;;23.83;13.80;;;0.30;90.00;;;;;;4963582;28;20200;-83
2021/04/07 04:55:10;;;;;;;26.67;14.90;;;0.40;90.10;;;;;;4967670;28;20217;-83
2021/04/07 04:57:38;;;;;;;24.30;14.67;;;0.40;90.10;;;;;;4973714;28;20218;-82
2021/04/07 05:00:08;;;;;;;26.50;14.50;;;0.40;90.10;;;;;;4953542;28;20251;-81
2021/04/07 05:02:36;;;;;;;23.97;15.27;;;0.50;90.10;;;;;;4964149;28;20214;-81
2021/04/07 05:05:05;;;;;;;23.43;14.43;;;0.60;90.00;;;;;;4967087;28;20567;-83
2021/04/07 05:07:33;;;;;;;24.87;14.73;;;0.80;89.60;;;;;;4964903;28;20497;-82
2021/04/07 05:10:02;;;;;;;28.87;14.27;;;0.70;89.40;;;;;;4960224;28;20590;-85
2021/04/07 05:12:29;;;;;;;25.50;15.00;;;0.80;89.40;;;;;;4950843;28;20611;-85
2021/04/07 05:14:57;;;;;;;21.80;14.13;;;0.90;89.10;;;;;;4956679;28;20619;-84
2021/04/07 05:17:27;;;;;;;27.17;15.53;;;0.90;88.90;;;;;;4956045;28;20209;-84
2021/04/07 05:19:55;;;;;;;21.63;13.33;;;1.10;89.00;;;;;;4961357;28;20824;-85
2021/04/07 05:22:24;;;;;;;27.47;15.10;;;1.10;88.40;;;;;;4962048;28;20516;-83
2021/04/07 05:24:52;;;;;;;22.67;14.63;;;1.20;88.40;;;;;;4946154;28;20241;-85
2021/04/07 05:27:21;;;;;;;23.93;14.80;;;1.30;88.20;;;;;;4934997;28;20211;-82
2021/04/07 05:29:49;;;;;;;20.83;14.27;;;1.30;88.00;;;;;;4958584;28;20598;-83
2021/04/07 05:32:17;;;;;;;22.13;14.23;;;1.40;88.10;;;;;;4960869;28;20287;-83
2021/04/07 05:34:45;;;;;;;22.43;14.27;;;1.40;87.90;;;;;;4953881;28;20209;-83
2021/04/07 05:37:12;;;;;;;22.77;15.90;;;1.40;87.80;;;;;;4952825;28;20985;-80
2021/04/07 05:39:40;;;;;;;21.57;13.23;;;1.60;87.80;;;;;;4961034;28;20204;-82
2021/04/07 05:42:08;;;;;;;22.77;15.23;;;1.60;87.80;;;;;;4962421;28;20209;-80
2021/04/07 05:44:37;;;;;;;22.37;14.67;;;1.70;87.30;;;;;;4986582;28;20241;-83
2021/04/07 05:47:05;;;;;;;21.63;14.47;;;1.70;87.30;;;;;;4978107;28;20205;-83
2021/04/07 05:49:33;;;;;;;23.60;14.77;;;1.90;87.30;;;;;;4978635;28;20452;-81
2021/04/07 05:52:01;;;;;;;22.70;13.47;;;1.90;86.80;;;;;;4972080;28;20305;-82
2021/04/07 05:54:29;;;;;;;20.67;13.07;;;2.00;86.70;;;;;;4963224;28;20271;-80
2021/04/07 05:56:58;;;;;;;21.57;13.60;;;2.10;86.70;;;;;;4978720;28;20254;-82
2021/04/07 05:59:26;;;;;;;18.30;12.60;;;2.10;86.70;;;;;;4979920;28;20377;-83
2021/04/07 06:01:55;;;;;;;18.60;11.80;;;2.20;86.20;;;;;;4982983;28;20239;-81
2021/04/07 06:04:23;;;;;;;24.40;13.57;;;2.30;86.10;;;;;;4973483;28;20233;-80
2021/04/07 06:06:50;;;;;;;19.27;13.47;;;2.30;85.70;;;;;;4970422;28;20982;-83
2021/04/07 06:09:18;;;;;;;23.47;14.60;;;2.30;85.50;;;;;;4980272;28;20208;-81
2021/04/07 06:11:45;;;;;;;22.03;13.93;;;2.10;85.80;;;;;;4979856;28;20212;-83
2021/04/07 06:14:15;;;;;;;21.73;14.30;;;2.10;86.40;;;;;;4986552;28;20267;-81
2021/04/07 06:16:42;;;;;;;22.10;14.23;;;2.20;86.30;;;;;;4974067;28;20208;-83
2021/04/07 06:19:11;;;;;;;22.07;14.03;;;2.30;86.40;;;;;;4964540;28;20505;-82
2021/04/07 06:21:39;;;;;;;23.00;14.43;;;2.30;85.80;;;;;;4971895;28;20232;-81
2021/04/07 06:24:08;;;;;;;18.17;10.90;;;2.40;86.00;;;;;;4970913;28;20294;-82
2021/04/07 06:26:38;;;;;;;22.17;14.77;;;2.40;85.30;;;;;;4975695;28;20203;-81
2021/04/07 06:29:06;;;;;;;21.10;14.30;;;2.40;85.30;;;;;;4965851;28;20212;-80
2021/04/07 06:31:34;;;;;;;22.70;15.67;;;2.50;85.20;;;;;;4964620;28;20217;-82
2021/04/07 06:34:02;;;;;;;24.43;15.93;;;2.20;85.20;;;;;;4973491;28;20258;-85
2021/04/07 06:36:32;;;;;;;23.33;15.00;;;2.30;86.00;;;;;;4975601;28;20209;-83
2021/04/07 06:39:00;;;;;;;20.67;14.43;;;2.40;86.10;;;;;;4963953;28;20216;-81
2021/04/07 06:41:32;;;;;;;19.43;13.73;;;2.20;85.40;;;;;;4978050;28;20185;-83
2021/04/07 06:44:01;;;;;;;21.17;14.83;;;2.00;85.80;;;;;;4967778;28;20867;-83
2021/04/07 06:46:29;;;;;;;22.53;14.93;;;1.90;86.50;;;;;;4964539;28;20425;-83
2021/04/07 06:48:59;;;;;;;19.37;14.63;;;1.90;87.00;;;;;;4960875;28;20223;-83
2021/04/07 06:51:27;;;;;;;21.67;14.57;;;1.90;86.90;;;;;;4958205;28;20507;-83
2021/04/07 06:53:58;;;;;;;20.67;14.20;;;2.00;86.60;;;;;;4961618;28;20210;-82
2021/04/07 06:56:27;;;;;;;23.33;14.67;;;1.90;86.60;;;;;;4962150;28;20295;-84
2021/04/07 06:58:54;;;;;;;20.17;13.47;;;2.10;86.90;;;;;;4974120;28;20201;-79
2021/04/07 07:01:22;;;;;;;19.27;13.17;;;1.90;87.00;;;;;;4958200;28;20228;-80
2021/04/07 07:03:50;;;;;;;21.60;13.77;;;2.00;87.30;;;;;;4962683;28;20201;-85
2021/04/07 07:06:18;;;;;;;21.77;12.97;;;2.10;86.70;;;;;;4956173;28;20339;-84
2021/04/07 07:08:50;;;;;;;17.03;11.90;;;2.00;86.20;;;;;;4966574;28;20206;-82
2021/04/07 07:11:19;;;;;;;18.03;12.37;;;2.00;85.90;;;;;;4977926;28;20229;-83
2021/04/07 07:13:50;;;;;;;16.77;13.03;;;1.90;86.40;;;;;;4975766;28;20208;-80
2021/04/07 07:16:26;;;;;;;19.87;12.40;;;2.00;86.70;;;;;;4954880;28;20272;-85
2021/04/07 07:18:54;;;;;;;17.57;12.73;;;2.00;86.30;;;;;;4962237;28;20204;-83
2021/04/07 07:21:21;;;;;;;20.37;13.60;;;2.10;86.50;;;;;;4950748;28;20229;-84
2021/04/07 07:23:50;;;;;;;20.60;14.20;;;2.20;85.90;;;;;;4959354;28;20207;-79
2021/04/07 07:26:20;;;;;;;20.30;14.10;;;2.20;85.60;;;;;;4967100;28;20605;-83
2021/04/07 07:28:51;;;;;;;20.27;13.80;;;2.20;85.80;;;;;;4960216;28;20208;-81
2021/04/07 07:31:21;;;;;;;18.67;12.77;;;2.30;85.60;;;;;;4962932;28;20683;-83
2021/04/07 07:33:49;;;;;;;18.17;12.27;;;2.30;85.30;;;;;;4974473;28;20367;-82
2021/04/07 07:36:17;;;;;;;15.77;12.30;;;2.30;85.00;;;;;;4965032;28;20647;-82
2021/04/07 07:38:46;;;;;;;15.10;10.70;;;2.20;85.00;;;;;;4965480;28;20623;-82
2021/04/07 07:41:14;;;;;;;14.30;9.67;;;2.10;84.80;;;;;;4964091;28;20296;-83
2021/04/07 07:43:43;;;;;;;15.23;10.20;;;2.00;85.30;;;;;;4971081;28;20200;-80
2021/04/07 07:46:13;;;;;;;17.60;10.23;;;1.80;85.80;;;;;;4958855;28;20221;-81
2021/04/07 07:48:43;;;;;;;15.03;9.73;;;2.00;86.00;;;;;;4967263;28;20231;-79
2021/04/07 07:51:16;;;;;;;14.77;9.93;;;1.80;86.00;;;;;;4978136;28;20257;-82
2021/04/07 07:53:46;;;;;;;12.30;9.17;;;1.80;86.30;;;;;;4984087;28;20198;-80
2021/04/07 07:56:17;;;;;;;15.77;9.10;;;1.90;86.70;;;;;;4974756;28;20215;-83
2021/04/07 07:58:48;;;;;;;11.87;8.60;;;2.00;85.80;;;;;;4964189;28;20209;-82
2021/04/07 08:01:46;;;;;;;12.83;8.87;;;2.00;85.40;;;;;;4955647;28;20219;-82
2021/04/07 08:04:14;;;;;;;11.87;8.27;;;2.20;85.40;;;;;;4962469;28;20200;-83
2021/04/07 08:06:43;;;;;;;14.67;8.83;;;2.30;85.00;;;;;;4964407;28;20524;-81
2021/04/07 08:09:14;;;;;;;15.27;9.10;;;2.20;85.20;;;;;;4971873;28;20235;-82
2021/04/07 08:11:44;;;;;;;13.00;9.17;;;2.30;85.40;;;;;;4975395;28;20483;-81
2021/04/07 08:14:15;;;;;;;11.87;8.50;;;2.40;85.30;;;;;;4975514;28;20276;-81
2021/04/07 08:16:44;;;;;;;12.50;8.23;;;2.50;85.40;;;;;;4973030;28;20205;-84
2021/04/07 08:19:13;;;;;;;11.00;8.37;;;2.60;84.30;;;;;;4970974;28;20202;-82
2021/04/07 08:21:45;;;;;;;11.70;9.10;;;2.50;84.30;;;;;;4973465;28;20213;-83
2021/04/07 08:24:14;;;;;;;10.93;7.90;;;2.50;84.50;;;;;;4973813;28;20236;-82
2021/04/07 08:26:44;;;;;;;11.13;7.27;;;2.50;84.40;;;;;;4969323;28;20489;-85
2021/04/07 08:29:14;;;;;;;10.20;7.57;;;2.60;84.10;;;;;;4981695;28;20204;-80
2021/04/07 08:31:45;;;;;;;13.37;7.93;;;2.50;83.80;;;;;;4962490;28;20227;-80
2021/04/07 08:34:16;;;;;;;10.87;8.50;;;2.50;83.90;;;;;;4973348;28;20202;-81
2021/04/07 08:36:45;;;;;;;11.10;8.10;;;2.40;83.80;;;;;;4975760;28;20193;-82
2021/04/07 08:39:14;;;;;;;11.40;8.07;;;2.50;84.20;;;;;;4971421;28;20253;-83
2021/04/07 08:41:45;;;;;;;11.63;8.30;;;2.60;84.20;;;;;;4958359;28;20237;-82
2021/04/07 08:44:16;;;;;;;9.80;7.50;;;2.70;83.80;;;;;;4960302;28;20200;-81
2021/04/07 08:46:46;;;;;;;11.40;7.67;;;2.90;83.70;;;;;;4975227;28;20202;-83
2021/04/07 08:49:36;;;;;;;10.03;8.07;;;3.10;83.30;;;;;;4962793;28;20235;-86
2021/04/07 08:52:16;;;;;;;10.47;6.83;;;3.30;83.10;;;;;;4960081;28;20209;-82
2021/04/07 08:54:46;;;;;;;10.00;7.30;;;3.40;82.30;;;;;;4968134;28;20210;-84
2021/04/07 08:57:31;;;;;;;12.20;7.37;;;3.50;82.40;;;;;;4969025;28;20296;-82
2021/04/07 09:00:04;;;;;;;8.70;7.40;;;3.50;82.30;;;;;;4968456;28;20308;-81
2021/04/07 09:02:35;;;;;;;12.00;7.17;;;3.60;82.20;;;;;;4960054;28;20218;-82
2021/04/07 09:05:06;;;;;;;9.43;6.80;;;3.60;82.00;;;;;;4968228;28;20573;-81
2021/04/07 09:07:43;;;;;;;12.03;6.90;;;3.60;81.40;;;;;;4961662;28;20477;-80
2021/04/07 09:10:16;;;;;;;12.53;7.53;;;3.70;81.40;;;;;;4959115;28;20253;-83
2021/04/07 09:12:48;;;;;;;10.40;7.10;;;3.90;81.40;;;;;;4945051;28;20227;-81
2021/04/07 09:15:25;;;;;;;10.93;7.93;;;3.90;81.30;;;;;;4941298;28;20492;-86
2021/04/07 09:17:55;;;;;;;10.40;7.57;;;3.70;81.40;;;;;;4944528;28;20213;-85
2021/04/07 09:20:38;;;;;;;9.00;6.77;;;3.60;81.70;;;;;;4944987;28;20203;-81
2021/04/07 09:23:21;;;;;;;11.43;7.27;;;3.50;81.90;;;;;;4957784;28;20208;-82
2021/04/07 09:25:52;;;;;;;9.23;6.90;;;3.30;81.80;;;;;;4959237;28;20225;-82
2021/04/07 09:28:32;;;;;;;9.27;6.80;;;3.60;82.50;;;;;;4973830;28;20200;-83
2021/04/07 09:31:15;;;;;;;11.70;7.27;;;3.90;81.80;;;;;;4970058;28;20368;-82
2021/04/07 09:33:45;;;;;;;10.27;7.63;;;4.20;81.60;;;;;;4963692;28;20208;-82
2021/04/07 09:36:15;;;;;;;9.03;6.93;;;4.40;81.40;;;;;;4964696;28;20216;-86
2021/04/07 09:38:45;;;;;;;9.83;6.50;;;4.70;80.60;;;;;;4972212;28;20254;-83
2021/04/07 09:41:15;;;;;;;8.87;7.20;;;4.80;80.30;;;;;;4962827;28;20208;-82
2021/04/07 09:43:43;;;;;;;11.33;7.03;;;4.80;79.90;;;;;;4961495;28;20267;-84
2021/04/07 09:46:11;;;;;;;10.97;7.33;;;4.70;80.00;;;;;;4955777;28;20221;-83
2021/04/07 09:48:48;;;;;;;10.10;7.07;;;4.60;79.80;;;;;;4961766;28;20232;-82
2021/04/07 09:51:35;;;;;;;12.03;7.37;;;4.60;79.80;;;;;;4961548;28;20251;-84
2021/04/07 09:54:20;;;;;;;12.03;7.63;;;4.60;79.80;;;;;;4968490;28;20205;-80
2021/04/07 09:56:51;;;;;;;10.40;7.67;;;4.80;79.80;;;;;;4965722;28;20562;-82
2021/04/07 09:59:19;;;;;;;9.83;7.53;;;5.00;80.00;;;;;;4983471;28;20189;-85
2021/04/07 10:01:47;;;;;;;9.37;7.00;;;5.00;79.20;;;;;;4973924;28;20374;-84
2021/04/07 10:04:15;;;;;;;6.90;5.53;;;4.80;79.00;;;;;;4977224;28;20291;-85
2021/04/07 10:06:43;;;;;;;8.47;6.10;;;4.80;78.70;;;;;;4979936;28;20233;-85
2021/04/07 10:09:11;;;;;;;9.37;6.07;;;5.00;78.90;;;;;;4976814;28;20193;-85
2021/04/07 10:11:40;;;;;;;10.53;7.10;;;5.10;78.90;;;;;;4973623;28;20275;-83
2021/04/07 10:14:10;;;;;;;8.27;6.37;;;5.20;79.00;;;;;;4967297;28;20216;-81
2021/04/07 10:16:39;;;;;;;10.20;7.23;;;5.20;78.70;;;;;;4974913;28;20950;-80
2021/04/07 10:19:09;;;;;;;8.97;7.40;;;5.20;79.00;;;;;;4969836;28;20630;-82
2021/04/07 10:21:40;;;;;;;11.00;6.80;;;5.40;79.00;;;;;;4960079;28;20268;-81
2021/04/07 10:24:09;;;;;;;10.70;7.27;;;5.40;78.80;;;;;;4974020;28;20197;-86
2021/04/07 10:26:42;;;;;;;9.17;7.53;;;5.70;78.80;;;;;;4979353;28;20226;-85
2021/04/07 10:29:23;;;;;;;10.33;7.30;;;5.80;78.50;;;;;;4969888;28;20216;-80
2021/04/07 10:31:56;;;;;;;11.37;7.23;;;5.90;78.30;;;;;;4968938;28;20474;-80
2021/04/07 10:34:31;;;;;;;33.83;22.00;;;6.00;78.20;;;;;;4934484;28;20223;-84
2021/04/07 10:37:00;;;;;;;6.13;5.17;;;6.10;78.00;;;;;;4971974;28;20422;-84
2021/04/07 10:39:36;;;;;;;7.07;5.83;;;5.90;77.20;;;;;;4965185;28;20224;-82
2021/04/07 10:42:08;;;;;;;6.83;4.90;;;5.50;77.20;;;;;;4952334;28;20225;-85
2021/04/07 10:44:36;;;;;;;6.27;4.87;;;5.40;77.00;;;;;;4936320;28;20649;-82
2021/04/07 10:47:15;;;;;;;8.13;5.80;;;5.30;76.70;;;;;;4956738;28;20264;-81
2021/04/07 10:49:51;;;;;;;10.43;5.47;;;5.20;77.10;;;;;;4959678;28;20193;-83
2021/04/07 10:52:34;;;;;;;7.17;5.67;;;5.00;77.40;;;;;;4950433;28;20536;-82
2021/04/07 10:55:10;;;;;;;9.40;5.67;;;5.00;78.00;;;;;;4962023;28;20224;-83
2021/04/07 10:57:41;;;;;;;7.97;6.37;;;4.90;78.40;;;;;;4971730;28;20205;-83
2021/04/07 11:00:12;;;;;;;8.20;5.30;;;4.90;78.70;;;;;;4971999;28;20260;-81
2021/04/07 11:02:42;;;;;;;7.50;5.80;;;5.00;78.20;;;;;;4936312;28;20311;-83
2021/04/07 11:05:16;;;;;;;8.23;5.90;;;5.00;78.30;;;;;;4943995;28;20271;-81
2021/04/07 11:07:47;;;;;;;10.03;5.97;;;5.10;78.00;;;;;;4964986;28;20209;-82
2021/04/07 11:10:16;;;;;;;8.50;5.43;;;5.20;77.80;;;;;;4964441;28;20433;-80
2021/04/07 11:12:50;;;;;;;8.03;5.73;;;5.30;77.80;;;;;;4944005;28;20240;-81
2021/04/07 11:15:18;;;;;;;7.00;5.20;;;5.40;77.30;;;;;;4961026;28;20303;-83
2021/04/07 11:17:51;;;;;;;7.97;5.70;;;5.50;77.40;;;;;;4972730;28;20205;-82
2021/04/07 11:20:19;;;;;;;5.90;5.03;;;5.60;77.40;;;;;;4970308;28;20197;-82
2021/04/07 11:22:55;;;;;;;6.73;4.43;;;5.80;77.00;;;;;;4937717;28;20233;-81
2021/04/07 11:25:24;;;;;;;6.17;5.07;;;5.80;76.40;;;;;;4953223;28;20311;-83
2021/04/07 11:27:53;;;;;;;6.23;5.00;;;5.70;76.40;;;;;;4981184;28;20190;-82
2021/04/07 11:30:24;;;;;;;8.10;5.00;;;5.60;76.60;;;;;;4982240;28;20502;-84
2021/04/07 11:32:56;;;;;;;6.23;5.27;;;5.60;77.60;;;;;;4953498;28;20253;-83
2021/04/07 11:35:53;;;;;;;6.87;5.27;;;5.40;78.00;;;;;;4956543;28;20220;-82
2021/04/07 11:38:26;;;;;;;9.20;5.83;;;5.40;78.70;;;;;;4972056;28;20699;-82
2021/04/07 11:46:51;;;;;;;8.00;5.70;;;5.70;79.70;;;;;;4967581;28;20548;-82
2021/04/07 11:49:20;;;;;;;7.77;5.90;;;5.70;78.70;;;;;;4970519;28;20477;-83
2021/04/07 11:51:53;;;;;;;8.77;6.27;;;5.70;79.30;;;;;;4958650;28;20222;-82
2021/04/07 11:54:33;;;;;;;9.03;6.90;;;6.00;79.20;;;;;;4944575;28;20257;-81
2021/04/07 11:57:05;;;;;;;9.10;7.07;;;5.90;79.20;;;;;;4969143;28;20263;-81
2021/04/07 11:59:34;;;;;;;8.33;6.50;;;6.00;79.50;;;;;;4969262;28;20280;-85
2021/04/07 12:02:04;;;;;;;9.27;5.87;;;6.00;79.00;;;;;;4954717;28;20637;-80
2021/04/07 12:04:35;;;;;;;10.80;7.20;;;5.90;79.20;;;;;;4945532;28;20249;-82
2021/04/07 12:07:03;;;;;;;9.20;6.13;;;5.70;79.20;;;;;;4969420;28;20225;-84
2021/04/07 12:09:32;;;;;;;7.47;6.00;;;5.60;79.40;;;;;;4973235;28;20200;-83
2021/04/07 12:12:02;;;;;;;8.70;6.20;;;5.60;79.20;;;;;;4939715;28;20667;-80
2021/04/07 12:14:36;;;;;;;7.73;5.80;;;5.50;79.10;;;;;;4938858;28;20288;-79
2021/04/07 12:17:04;;;;;;;8.50;6.20;;;5.70;79.60;;;;;;4959582;28;20208;-80
2021/04/07 12:19:37;;;;;;;8.47;6.30;;;6.10;79.80;;;;;;4971302;28;20535;-84
2021/04/07 12:22:22;;;;;;;8.97;6.50;;;6.50;78.90;;;;;;4947733;28;20254;-83
2021/04/07 12:24:52;;;;;;;8.17;6.20;;;6.60;78.90;;;;;;4954196;28;20220;-82
2021/04/07 12:27:21;;;;;;;7.90;5.63;;;6.60;78.30;;;;;;4980855;28;20192;-79
2021/04/07 12:29:49;;;;;;;6.87;5.70;;;6.60;78.10;;;;;;4972182;28;20259;-82
2021/04/07 12:32:17;;;;;;;7.30;5.43;;;6.60;78.60;;;;;;4960629;28;21478;-81
2021/04/07 12:34:52;;;;;;;7.10;5.23;;;6.90;78.20;;;;;;4951281;28;20248;-82
2021/04/07 12:37:23;;;;;;;7.73;5.80;;;7.10;78.00;;;;;;4974534;28;20228;-83
2021/04/07 12:39:52;;;;;;;7.13;5.67;;;7.30;77.00;;;;;;4969715;28;20207;-82
2021/04/07 12:42:26;;;;;;;9.13;5.60;;;6.80;76.30;;;;;;4959922;28;20284;-82
2021/04/07 12:44:54;;;;;;;5.90;4.73;;;6.70;76.40;;;;;;4951759;28;20230;-82
2021/04/07 12:47:25;;;;;;;6.77;4.93;;;6.70;75.70;;;;;;4975405;28;20208;-81
2021/04/07 12:50:00;;;;;;;5.60;5.03;;;6.70;75.80;;;;;;4972415;28;20217;-83
2021/04/07 12:52:28;;;;;;;8.43;4.50;;;6.80;75.80;;;;;;4963905;28;20222;-82
2021/04/07 12:54:57;;;;;;;7.13;5.37;;;6.70;75.60;;;;;;4954841;28;20249;-84
2021/04/07 12:57:25;;;;;;;6.03;5.43;;;6.40;75.40;;;;;;4967867;28;20192;-84
2021/04/07 12:59:53;;;;;;;7.93;5.77;;;6.60;76.20;;;;;;4968565;28;20245;-80